createdAt,value
2023-05-22T00:02:28.647Z,36.12
2023-05-22T00:05:00.086Z,36.19
2023-05-22T00:07:30.353Z,36.23
2023-05-22T00:10:00.536Z,36.22
2023-05-22T00:12:30.803Z,36.33
2023-05-22T00:15:01.146Z,36.28
2023-05-22T00:17:31.404Z,36.43
2023-05-22T00:20:08.269Z,36.63
2023-05-22T00:22:39.485Z,36.60
2023-05-22T00:25:10.596Z,36.75
2023-05-22T00:27:40.860Z,36.75
2023-05-22T00:30:11.745Z,36.89
2023-05-22T00:32:41.930Z,36.86
2023-05-22T00:35:12.256Z,36.78
2023-05-22T00:37:42.464Z,37.01
2023-05-22T00:40:13.888Z,36.98
2023-05-22T00:42:44.953Z,37.16
2023-05-22T00:45:15.858Z,37.06
2023-05-22T00:47:46.590Z,37.24
2023-05-22T00:50:18.147Z,37.38
2023-05-22T00:52:48.619Z,37.46
2023-05-22T00:55:18.871Z,37.50
2023-05-22T00:57:50.918Z,37.45
2023-05-22T01:02:56.426Z,37.54
2023-05-22T01:05:26.881Z,37.74
2023-05-22T01:07:57.391Z,37.85
2023-05-22T01:10:28.501Z,37.82
2023-05-22T01:13:26.257Z,38.64
2023-05-22T01:16:01.884Z,37.97
2023-05-22T01:18:52.717Z,38.81
2023-05-22T01:21:46.384Z,38.78
2023-05-22T01:24:44.317Z,38.83
2023-05-22T01:27:51.249Z,39.30
2023-05-22T01:30:32.192Z,38.67
2023-05-22T01:33:04.710Z,38.15
2023-05-22T01:35:37.686Z,38.19
2023-05-22T01:38:09.228Z,38.23
2023-05-22T01:40:39.993Z,38.33
2023-05-22T01:43:10.877Z,38.34
2023-05-22T01:45:41.166Z,38.47
2023-05-22T01:48:12.311Z,38.33
2023-05-22T01:50:42.779Z,38.53
2023-05-22T01:53:24.892Z,39.50
2023-05-22T01:56:10.235Z,39.74
2023-05-22T01:58:40.623Z,38.78
2023-05-22T02:01:14.491Z,39.14
2023-05-22T02:03:47.393Z,39.15
2023-05-22T02:06:19.638Z,39.17
2023-05-22T02:08:51.213Z,39.17
2023-05-22T02:11:24.312Z,39.45
2023-05-22T02:13:55.944Z,39.37
2023-05-22T02:16:29.024Z,39.46
2023-05-22T02:19:06.787Z,39.75
2023-05-22T02:21:37.125Z,39.74
2023-05-22T02:24:07.382Z,39.84
2023-05-22T02:26:37.984Z,39.95
2023-05-22T02:29:08.406Z,40.05
2023-05-22T02:31:38.768Z,40.16
2023-05-22T02:34:08.955Z,40.36
2023-05-22T02:36:39.986Z,40.10
2023-05-22T02:39:10.206Z,40.09
2023-05-22T02:41:40.296Z,40.00
2023-05-22T02:44:10.624Z,40.11
2023-05-22T02:46:40.941Z,40.17
2023-05-22T02:49:11.107Z,40.43
2023-05-22T02:51:41.345Z,40.50
2023-05-22T02:54:11.861Z,40.78
2023-05-22T02:56:43.394Z,40.93
2023-05-22T02:59:13.542Z,40.80
2023-05-22T03:01:44.686Z,40.83
2023-05-22T03:04:15.934Z,41.06
2023-05-22T03:06:46.951Z,41.17
2023-05-22T03:09:17.084Z,41.35
2023-05-22T03:11:47.423Z,41.27
2023-05-22T03:14:17.636Z,41.27
2023-05-22T03:16:47.890Z,41.24
2023-05-22T03:19:18.204Z,41.45
2023-05-22T03:21:50.261Z,41.69
2023-05-22T03:24:21.267Z,41.70
2023-05-22T03:26:51.441Z,41.76
2023-05-22T03:29:21.980Z,41.99
2023-05-22T03:31:53.287Z,41.84
2023-05-22T03:34:23.386Z,42.05
2023-05-22T03:36:53.618Z,42.31
2023-05-22T03:39:23.727Z,42.34
2023-05-22T03:41:54.003Z,42.40
2023-05-22T03:44:24.952Z,42.67
2023-05-22T03:46:55.175Z,42.61
2023-05-22T03:49:25.389Z,42.73
2023-05-22T03:51:55.555Z,42.80
2023-05-22T03:54:25.938Z,42.80
2023-05-22T03:56:56.238Z,42.72
2023-05-22T03:59:26.470Z,42.49
2023-05-22T04:01:58.270Z,42.18
2023-05-22T04:04:29.099Z,42.01
2023-05-22T04:06:59.536Z,41.96
2023-05-22T04:09:31.931Z,41.77
2023-05-22T04:12:02.831Z,41.76
2023-05-22T04:14:33.190Z,41.77
2023-05-22T04:17:03.446Z,41.38
2023-05-22T04:19:33.801Z,41.37
2023-05-22T04:22:04.282Z,41.60
2023-05-22T04:24:34.436Z,41.83
2023-05-22T04:27:04.888Z,41.42
2023-05-22T04:29:36.622Z,41.10
2023-05-22T04:32:10.776Z,41.09
2023-05-22T04:34:42.003Z,40.64
2023-05-22T04:37:15.438Z,40.92
2023-05-22T04:39:46.426Z,41.18
2023-05-22T04:42:17.608Z,40.38
2023-05-22T04:44:48.522Z,40.80
2023-05-22T04:47:19.570Z,40.51
2023-05-22T04:49:49.812Z,40.16
2023-05-22T04:52:19.982Z,40.04
2023-05-22T04:54:52.356Z,39.94
2023-05-22T04:57:25.769Z,39.76
2023-05-22T04:59:57.898Z,39.51
2023-05-22T05:02:28.557Z,39.35
2023-05-22T05:04:58.760Z,39.53
2023-05-22T05:07:29.629Z,39.03
2023-05-22T05:09:59.876Z,38.58
2023-05-22T05:12:30.129Z,38.63
2023-05-22T05:15:00.805Z,38.33
2023-05-22T05:17:31.224Z,38.10
2023-05-22T05:20:18.145Z,38.34
2023-05-22T05:22:48.554Z,38.52
2023-05-22T05:25:18.941Z,38.28
2023-05-22T05:27:49.222Z,37.84
2023-05-22T05:30:20.537Z,38.04
2023-05-22T05:32:50.976Z,37.84
2023-05-22T05:35:21.911Z,37.23
2023-05-22T05:37:52.127Z,37.65
2023-05-22T05:40:22.316Z,37.57
2023-05-22T05:42:52.514Z,37.81
2023-05-22T05:45:22.743Z,38.10
2023-05-22T05:47:53.317Z,38.05
2023-05-22T05:50:23.994Z,37.45
2023-05-22T05:52:54.203Z,36.98
2023-05-22T05:55:24.554Z,36.73
2023-05-22T05:57:54.880Z,36.46
2023-05-22T06:00:25.128Z,36.60
2023-05-22T06:02:56.174Z,36.18
2023-05-22T06:05:27.204Z,36.13
2023-05-22T06:07:59.092Z,36.41
2023-05-22T06:10:29.264Z,36.16
2023-05-22T06:12:59.483Z,36.56
2023-05-22T06:15:30.992Z,37.00
2023-05-22T06:18:02.732Z,37.72
2023-05-22T06:20:33.131Z,37.69
2023-05-22T06:23:03.337Z,37.91
2023-05-22T06:25:34.172Z,38.08
2023-05-22T06:28:04.548Z,37.57
2023-05-22T06:30:40.160Z,37.53
2023-05-22T06:33:10.818Z,37.49
2023-05-22T06:35:41.350Z,38.20
2023-05-22T06:38:11.550Z,37.61
2023-05-22T06:40:41.991Z,37.32
2023-05-22T06:43:12.872Z,37.63
2023-05-22T06:45:44.778Z,37.71
2023-05-22T06:48:15.836Z,37.83
2023-05-22T06:50:47.927Z,37.83
2023-05-22T06:53:18.352Z,38.39
2023-05-22T06:55:48.852Z,37.90
2023-05-22T06:58:21.371Z,38.46
2023-05-22T07:00:52.431Z,38.32
2023-05-22T07:03:24.832Z,38.18
2023-05-22T07:05:57.840Z,37.96
2023-05-22T07:08:30.419Z,37.79
2023-05-22T07:11:02.231Z,37.98
2023-05-22T07:13:32.553Z,37.93
2023-05-22T07:16:03.198Z,37.99
2023-05-22T07:18:33.462Z,38.08
2023-05-22T07:21:03.909Z,38.12
2023-05-22T07:23:34.128Z,36.27
2023-05-22T07:26:04.339Z,36.15
2023-05-22T07:28:34.514Z,36.51
2023-05-22T07:31:04.803Z,36.63
2023-05-22T07:33:35.014Z,35.02
2023-05-22T07:36:05.690Z,34.17
2023-05-22T07:38:35.800Z,33.99
2023-05-22T07:41:06.165Z,33.27
2023-05-22T07:43:36.774Z,32.31
2023-05-22T07:46:07.173Z,31.66
2023-05-22T07:48:37.376Z,31.97
2023-05-22T07:51:08.085Z,31.21
2023-05-22T07:53:38.273Z,30.92
2023-05-22T07:56:08.610Z,30.41
2023-05-22T07:58:40.176Z,30.22
2023-05-22T08:01:10.482Z,30.52
2023-05-22T08:03:41.033Z,30.49
2023-05-22T08:06:11.639Z,30.31
2023-05-22T08:08:42.024Z,30.36
2023-05-22T08:11:12.221Z,30.11
2023-05-22T08:13:42.447Z,30.07
2023-05-22T08:16:13.062Z,29.73
2023-05-22T08:18:43.282Z,29.57
2023-05-22T08:21:13.582Z,29.13
2023-05-22T08:23:43.848Z,29.36
2023-05-22T08:26:15.402Z,29.50
2023-05-22T08:28:45.768Z,28.13
2023-05-22T08:31:16.157Z,28.37
2023-05-22T08:33:46.486Z,28.58
2023-05-22T08:36:17.023Z,28.25
2023-05-22T08:38:47.199Z,28.37
2023-05-22T08:41:17.536Z,27.90
2023-05-22T08:43:54.756Z,28.04
2023-05-22T08:46:29.516Z,28.46
2023-05-22T08:49:01.674Z,28.62
2023-05-22T08:51:34.512Z,27.79
2023-05-22T08:54:08.996Z,26.76
2023-05-22T08:56:52.989Z,27.62
2023-05-22T08:59:26.286Z,27.12
2023-05-22T09:01:58.331Z,27.73
2023-05-22T09:04:29.098Z,27.76
2023-05-22T09:07:05.965Z,27.50
2023-05-22T09:09:47.211Z,27.60
2023-05-22T09:12:17.696Z,27.94
2023-05-22T09:14:47.851Z,27.59
2023-05-22T09:17:18.646Z,28.04
2023-05-22T09:19:48.980Z,27.70
2023-05-22T09:22:19.241Z,28.35
2023-05-22T09:24:49.538Z,27.86
2023-05-22T09:27:23.685Z,26.66
2023-05-22T09:29:57.186Z,26.80
2023-05-22T09:32:30.210Z,26.40
2023-05-22T09:35:07.019Z,26.25
2023-05-22T09:37:37.355Z,26.54
2023-05-22T09:40:08.998Z,26.66
2023-05-22T09:42:39.270Z,26.55
2023-05-22T09:45:09.856Z,27.21
2023-05-22T09:47:40.712Z,26.70
2023-05-22T09:50:11.255Z,26.81
2023-05-22T09:52:44.424Z,26.68
2023-05-22T09:55:16.416Z,27.04
2023-05-22T09:57:49.793Z,26.37
2023-05-22T10:00:20.504Z,27.15
2023-05-22T10:02:59.257Z,26.40
2023-05-22T10:05:33.982Z,26.17
2023-05-22T10:08:32.218Z,27.27
2023-05-22T10:11:03.964Z,27.96
2023-05-22T10:13:36.361Z,27.64
2023-05-22T10:16:07.923Z,27.35
2023-05-22T10:18:39.197Z,28.56
2023-05-22T10:21:11.542Z,28.02
2023-05-22T10:23:42.149Z,27.97
2023-05-22T10:26:13.158Z,28.37
2023-05-22T10:28:51.736Z,29.41
2023-05-22T10:31:33.038Z,29.43
2023-05-22T10:34:10.508Z,29.50
2023-05-22T10:36:50.667Z,29.53
2023-05-22T10:39:32.757Z,29.55
2023-05-22T10:42:04.480Z,29.27
2023-05-22T10:44:34.905Z,29.59
2023-05-22T10:47:13.882Z,30.46
2023-05-22T10:49:45.695Z,29.51
2023-05-22T10:52:18.818Z,29.74
2023-05-22T10:54:53.770Z,30.30
2023-05-22T10:57:24.948Z,29.76
2023-05-22T11:00:15.848Z,29.78
2023-05-22T11:02:54.070Z,29.34
2023-05-22T11:05:28.253Z,29.47
2023-05-22T11:08:26.381Z,28.71
2023-05-22T11:10:59.462Z,28.36
2023-05-22T11:13:32.369Z,28.66
2023-05-22T11:16:05.478Z,28.63
2023-05-22T11:18:35.832Z,27.90
2023-05-22T11:21:10.039Z,27.80
2023-05-22T11:23:40.430Z,27.58
2023-05-22T11:26:22.558Z,27.05
2023-05-22T11:28:53.449Z,27.31
2023-05-22T11:31:24.172Z,27.17
2023-05-22T11:33:54.972Z,27.90
2023-05-22T11:36:25.511Z,27.92
2023-05-22T11:39:01.614Z,27.56
2023-05-22T11:41:34.681Z,26.77
2023-05-22T11:44:08.792Z,27.50
2023-05-22T11:46:39.594Z,27.50
2023-05-22T11:49:13.689Z,27.01
2023-05-22T11:51:44.494Z,27.03
2023-05-22T11:54:18.472Z,26.47
2023-05-22T11:56:48.668Z,26.42
2023-05-22T11:59:22.368Z,26.34
2023-05-22T12:01:52.759Z,26.41
2023-05-22T12:04:23.574Z,26.68
2023-05-22T12:06:55.072Z,26.79
2023-05-22T12:09:27.725Z,26.40
2023-05-22T12:11:58.194Z,26.09
2023-05-22T12:14:30.294Z,26.20
2023-05-22T12:17:06.849Z,26.13
2023-05-22T12:19:43.083Z,26.22
2023-05-22T12:22:14.427Z,26.16
2023-05-22T12:24:48.598Z,25.61
2023-05-22T12:27:18.778Z,24.57
2023-05-22T12:29:49.021Z,23.89
2023-05-22T12:32:22.302Z,22.71
2023-05-22T12:34:52.650Z,22.22
2023-05-22T12:37:26.041Z,21.53
2023-05-22T12:40:01.197Z,20.87
2023-05-22T12:42:31.277Z,18.27
2023-05-22T12:45:01.698Z,21.41
2023-05-22T12:47:32.957Z,20.47
2023-05-22T12:50:03.292Z,19.79
2023-05-22T12:52:33.475Z,19.00
2023-05-22T12:55:04.246Z,18.15
2023-05-22T12:57:34.577Z,17.65
2023-05-22T13:00:06.274Z,16.92
2023-05-22T13:02:36.617Z,16.52
2023-05-22T13:05:07.200Z,15.60
2023-05-22T13:07:38.290Z,14.74
2023-05-22T13:10:09.256Z,14.51
2023-05-22T13:12:39.929Z,14.09
2023-05-22T13:15:12.037Z,14.13
2023-05-22T13:17:42.375Z,13.54
2023-05-22T13:20:13.602Z,13.32
2023-05-22T13:22:43.861Z,13.41
2023-05-22T13:25:14.246Z,12.95
2023-05-22T13:27:45.005Z,12.81
2023-05-22T13:30:15.345Z,12.91
2023-05-22T13:32:45.749Z,12.81
2023-05-22T13:35:16.030Z,12.68
2023-05-22T13:37:46.532Z,12.88
2023-05-22T13:40:18.144Z,12.68
2023-05-22T13:42:48.388Z,11.81
2023-05-22T13:45:18.644Z,12.58
2023-05-22T13:47:49.881Z,11.97
2023-05-22T13:50:20.432Z,12.05
2023-05-22T13:52:50.636Z,12.48
2023-05-22T13:55:21.228Z,11.46
2023-05-22T13:57:51.814Z,12.12
2023-05-22T14:00:22.084Z,11.62
2023-05-22T14:02:52.452Z,11.93
2023-05-22T14:05:24.166Z,12.30
2023-05-22T14:07:56.221Z,11.60
2023-05-22T14:10:26.763Z,11.89
2023-05-22T14:12:56.929Z,12.24
2023-05-22T14:15:27.079Z,13.00
2023-05-22T14:17:57.362Z,12.30
2023-05-22T14:20:27.516Z,12.15
2023-05-22T14:22:58.531Z,12.09
2023-05-22T14:25:28.947Z,11.71
2023-05-22T14:27:59.127Z,12.14
2023-05-22T14:30:29.336Z,12.29
2023-05-22T14:33:00.600Z,13.03
2023-05-22T14:35:31.543Z,12.75
2023-05-22T14:38:02.084Z,12.83
2023-05-22T14:40:32.388Z,12.71
2023-05-22T14:43:02.503Z,13.09
2023-05-22T14:45:32.682Z,13.85
2023-05-22T14:48:02.900Z,13.67
2023-05-22T14:50:33.330Z,14.03
2023-05-22T14:53:04.097Z,14.37
2023-05-22T14:55:34.333Z,14.89
2023-05-22T14:58:04.539Z,15.31
2023-05-22T15:00:34.698Z,15.73
2023-05-22T15:03:05.118Z,16.28
2023-05-22T15:05:35.390Z,16.53
2023-05-22T15:08:05.621Z,16.86
2023-05-22T15:10:36.692Z,17.49
2023-05-22T15:13:07.002Z,17.95
2023-05-22T15:15:37.292Z,18.14
2023-05-22T15:18:09.149Z,17.92
2023-05-22T15:20:39.948Z,18.42
2023-05-22T15:23:10.078Z,18.44
2023-05-22T15:25:40.640Z,18.95
2023-05-22T15:28:10.987Z,19.11
2023-05-22T15:30:43.800Z,19.39
2023-05-22T15:33:14.991Z,19.74
2023-05-22T15:35:46.821Z,20.00
2023-05-22T15:38:17.053Z,20.05
2023-05-22T15:40:47.313Z,20.40
2023-05-22T15:43:17.582Z,20.48
2023-05-22T15:45:51.111Z,20.38
2023-05-22T15:48:21.401Z,20.35
2023-05-22T15:50:51.535Z,20.66
2023-05-22T15:53:22.918Z,20.52
2023-05-22T15:55:53.566Z,21.18
2023-05-22T15:58:23.719Z,20.80
2023-05-22T16:00:54.028Z,21.40
2023-05-22T16:03:24.377Z,21.07
2023-05-22T16:05:54.656Z,21.36
2023-05-22T16:08:24.819Z,21.50
2023-05-22T16:10:56.920Z,21.95
2023-05-22T16:13:29.905Z,21.86
2023-05-22T16:16:00.244Z,21.18
2023-05-22T16:18:30.612Z,21.67
2023-05-22T16:21:00.876Z,21.98
2023-05-22T16:23:31.154Z,21.86
2023-05-22T16:26:01.373Z,21.93
2023-05-22T16:28:31.819Z,22.16
2023-05-22T16:31:02.101Z,22.23
2023-05-22T16:33:36.466Z,22.42
2023-05-22T16:36:07.204Z,22.40
2023-05-22T16:38:37.681Z,22.69
2023-05-22T16:41:09.021Z,22.78
2023-05-22T16:43:41.444Z,22.84
2023-05-22T16:46:12.005Z,22.68
2023-05-22T16:48:42.319Z,22.57
2023-05-22T16:51:12.470Z,22.85
2023-05-22T16:53:42.878Z,22.71
2023-05-22T16:56:14.171Z,23.04
2023-05-22T16:58:44.545Z,23.13
2023-05-22T17:01:15.089Z,23.04
2023-05-22T17:03:46.516Z,23.22
2023-05-22T17:06:18.341Z,23.37
2023-05-22T17:08:50.947Z,23.12
2023-05-22T17:11:21.238Z,23.42
2023-05-22T17:13:51.452Z,23.38
2023-05-22T17:16:21.715Z,23.26
2023-05-22T17:18:54.749Z,23.37
2023-05-22T17:21:25.294Z,23.54
2023-05-22T17:23:55.532Z,23.83
2023-05-22T17:26:25.768Z,23.89
2023-05-22T17:28:56.024Z,23.92
2023-05-22T17:31:26.346Z,24.24
2023-05-22T17:33:56.449Z,24.46
2023-05-22T17:36:26.622Z,24.71
2023-05-22T17:38:56.871Z,24.67
2023-05-22T17:41:27.251Z,25.22
2023-05-22T17:44:00.911Z,25.00
2023-05-22T17:46:31.176Z,25.46
2023-05-22T17:49:01.693Z,25.65
2023-05-22T17:51:32.438Z,25.86
2023-05-22T17:54:02.600Z,26.44
2023-05-22T17:56:34.190Z,26.90
2023-05-22T17:59:06.645Z,27.13
2023-05-22T18:01:36.918Z,27.29
2023-05-22T18:04:07.261Z,27.09
2023-05-22T18:06:37.533Z,27.54
2023-05-22T18:09:08.362Z,27.85
2023-05-22T18:11:38.506Z,27.48
2023-05-22T18:14:08.753Z,27.97
2023-05-22T18:16:39.092Z,28.22
2023-05-22T18:19:09.391Z,28.69
2023-05-22T18:21:39.508Z,28.66
2023-05-22T18:24:09.664Z,29.05
2023-05-22T18:26:39.909Z,28.88
2023-05-22T18:29:10.479Z,29.55
2023-05-22T18:31:40.786Z,29.71
2023-05-22T18:34:11.030Z,29.96
2023-05-22T18:36:44.279Z,30.11
2023-05-22T18:39:15.029Z,30.07
2023-05-22T18:41:47.963Z,30.62
2023-05-22T18:44:18.129Z,30.86
2023-05-22T18:46:48.391Z,31.35
2023-05-22T18:49:18.580Z,31.49
2023-05-22T18:51:48.752Z,31.81
2023-05-22T18:54:18.918Z,32.09
2023-05-22T18:56:49.157Z,32.08
2023-05-22T18:59:19.410Z,32.61
2023-05-22T19:01:49.556Z,32.66
2023-05-22T19:04:20.012Z,32.98
2023-05-22T19:06:53.838Z,32.87
2023-05-22T19:09:24.847Z,33.47
2023-05-22T19:11:55.070Z,33.49
2023-05-22T19:14:25.363Z,33.67
2023-05-22T19:16:55.544Z,33.78
2023-05-22T19:19:26.332Z,33.96
2023-05-22T19:21:56.606Z,33.61
2023-05-22T19:24:28.407Z,34.18
2023-05-22T19:26:58.531Z,34.09
2023-05-22T19:29:28.732Z,34.29
2023-05-22T19:31:58.884Z,34.48
2023-05-22T19:34:29.174Z,34.11
2023-05-22T19:36:59.397Z,34.27
2023-05-22T19:39:29.540Z,34.25
2023-05-22T19:41:59.862Z,34.40
2023-05-22T19:44:30.073Z,34.44
2023-05-22T19:47:00.288Z,34.20
2023-05-22T19:49:31.810Z,34.64
2023-05-22T19:52:01.984Z,34.49
2023-05-22T19:54:32.313Z,34.46
2023-05-22T19:57:03.348Z,34.78
2023-05-22T19:59:35.838Z,34.93
2023-05-22T20:02:07.800Z,34.96
2023-05-22T20:04:39.836Z,35.25
2023-05-22T20:07:10.658Z,34.96
2023-05-22T20:09:40.905Z,35.03
2023-05-22T20:12:11.105Z,35.00
2023-05-22T20:14:42.200Z,34.89
2023-05-22T20:17:12.546Z,35.04
2023-05-22T20:19:45.187Z,35.18
2023-05-22T20:22:15.495Z,35.12
2023-05-22T20:24:47.420Z,35.42
2023-05-22T20:27:17.591Z,35.31
2023-05-22T20:29:50.081Z,35.39
2023-05-22T20:32:20.358Z,35.24
2023-05-22T20:34:52.521Z,35.53
2023-05-22T20:37:23.287Z,35.54
2023-05-22T20:39:53.537Z,35.36
2023-05-22T20:42:23.873Z,35.23
2023-05-22T20:44:54.058Z,35.52
2023-05-22T20:47:24.177Z,35.47
2023-05-22T20:49:54.476Z,35.64
2023-05-22T20:52:24.908Z,35.65
2023-05-22T20:54:55.038Z,35.53
2023-05-22T20:57:25.843Z,35.65
2023-05-22T20:59:56.219Z,35.70
2023-05-22T21:02:26.566Z,35.88
2023-05-22T21:04:56.813Z,35.79
2023-05-22T21:07:27.023Z,35.70
2023-05-22T21:09:57.207Z,35.97
2023-05-22T21:12:27.388Z,35.81
2023-05-22T21:14:57.612Z,36.05
2023-05-22T21:17:29.139Z,35.83
2023-05-22T21:19:59.309Z,35.83
2023-05-22T21:22:29.490Z,36.10
2023-05-22T21:24:59.674Z,35.87
2023-05-22T21:27:29.935Z,36.24
2023-05-22T21:30:00.136Z,36.03
2023-05-22T21:32:30.677Z,35.93
2023-05-22T21:35:00.769Z,35.82
2023-05-22T21:37:30.946Z,36.16
2023-05-22T21:40:02.514Z,35.81
2023-05-22T21:42:44.980Z,36.16
2023-05-22T21:45:16.138Z,35.78
2023-05-22T21:47:46.470Z,36.09
2023-05-22T21:50:16.853Z,36.10
2023-05-22T21:52:47.112Z,35.75
2023-05-22T21:55:17.239Z,36.11
2023-05-22T21:57:47.407Z,35.95
2023-05-22T22:00:19.119Z,36.14
2023-05-22T22:02:49.486Z,35.72
2023-05-22T22:05:19.854Z,35.74
2023-05-22T22:07:52.034Z,35.71
2023-05-22T22:10:22.509Z,35.66
2023-05-22T22:12:52.862Z,35.93
2023-05-22T22:15:23.442Z,35.80
2023-05-22T22:18:04.015Z,35.49
2023-05-22T22:20:44.137Z,35.32
2023-05-22T22:23:15.466Z,35.29
2023-05-22T22:25:45.741Z,35.36
2023-05-22T22:28:17.570Z,35.69
2023-05-22T22:30:48.031Z,35.53
2023-05-22T22:33:18.280Z,35.41
2023-05-22T22:35:49.617Z,35.49
2023-05-22T22:38:19.814Z,35.70
2023-05-22T22:40:50.211Z,35.87
2023-05-22T22:43:20.593Z,35.77
2023-05-22T22:45:50.986Z,35.45
2023-05-22T22:48:22.554Z,35.59
2023-05-22T22:50:52.915Z,35.61
2023-05-22T22:53:23.079Z,35.80
2023-05-22T22:55:57.102Z,36.08
2023-05-22T22:58:27.429Z,35.77
2023-05-22T23:00:57.735Z,35.92
2023-05-22T23:03:27.972Z,35.82
2023-05-22T23:05:58.274Z,35.77
2023-05-22T23:08:28.460Z,36.16
2023-05-22T23:10:58.661Z,36.19
2023-05-22T23:13:28.896Z,36.05
2023-05-22T23:15:59.290Z,35.94
2023-05-22T23:18:29.597Z,36.14
2023-05-22T23:20:59.834Z,36.29
2023-05-22T23:23:29.984Z,36.46
2023-05-22T23:26:00.229Z,36.19
2023-05-22T23:28:30.382Z,36.16
2023-05-22T23:31:00.545Z,36.58
2023-05-22T23:33:30.767Z,36.58
2023-05-22T23:36:01.391Z,36.83
2023-05-22T23:38:31.558Z,36.81
2023-05-22T23:41:02.074Z,36.79
2023-05-22T23:43:32.309Z,36.69
2023-05-22T23:46:02.404Z,36.98
2023-05-22T23:48:32.568Z,36.89
2023-05-22T23:51:03.514Z,37.05
2023-05-22T23:53:33.713Z,37.12
2023-05-22T23:56:04.772Z,37.30
2023-05-22T23:58:38.657Z,37.24
